sensor_id;sensor_type;location;lat;lon;timestamp;P1;durP1;ratioP1;P2;durP2;ratioP2
57337;SDS011;43173;50.980;18.204;2023-06-10T00:00:13;35.50;;;29.00;;
57337;SDS011;43173;50.980;18.204;2023-06-10T00:02:40;36.60;;;29.40;;
57337;SDS011;43173;50.980;18.204;2023-06-10T00:05:07;37.00;;;28.20;;
57337;SDS011;43173;50.980;18.204;2023-06-10T00:07:33;36.90;;;29.30;;
57337;SDS011;43173;50.980;18.204;2023-06-10T00:10:04;33.60;;;28.40;;
57337;SDS011;43173;50.980;18.204;2023-06-10T00:12:31;33.30;;;28.00;;
57337;SDS011;43173;50.980;18.204;2023-06-10T00:15:05;36.00;;;28.70;;
57337;SDS011;43173;50.980;18.204;2023-06-10T00:17:31;33.30;;;28.10;;
57337;SDS011;43173;50.980;18.204;2023-06-10T00:19:58;31.90;;;28.30;;
57337;SDS011;43173;50.980;18.204;2023-06-10T00:22:24;32.30;;;27.70;;
57337;SDS011;43173;50.980;18.204;2023-06-10T00:24:54;34.70;;;28.20;;
57337;SDS011;43173;50.980;18.204;2023-06-10T00:27:22;34.90;;;28.80;;
57337;SDS011;43173;50.980;18.204;2023-06-10T00:29:48;34.40;;;27.80;;
57337;SDS011;43173;50.980;18.204;2023-06-10T00:32:13;35.40;;;27.80;;
57337;SDS011;43173;50.980;18.204;2023-06-10T00:34:39;34.60;;;28.00;;
57337;SDS011;43173;50.980;18.204;2023-06-10T00:37:04;32.90;;;27.20;;
57337;SDS011;43173;50.980;18.204;2023-06-10T00:39:30;36.90;;;28.30;;
57337;SDS011;43173;50.980;18.204;2023-06-10T00:41:56;36.60;;;28.50;;
57337;SDS011;43173;50.980;18.204;2023-06-10T00:44:21;36.30;;;28.20;;
57337;SDS011;43173;50.980;18.204;2023-06-10T00:46:47;35.70;;;28.60;;
57337;SDS011;43173;50.980;18.204;2023-06-10T00:49:15;41.40;;;29.30;;
57337;SDS011;43173;50.980;18.204;2023-06-10T00:51:42;36.90;;;29.30;;
57337;SDS011;43173;50.980;18.204;2023-06-10T00:54:08;36.40;;;29.40;;
57337;SDS011;43173;50.980;18.204;2023-06-10T00:56:33;41.40;;;29.40;;
57337;SDS011;43173;50.980;18.204;2023-06-10T00:59:00;36.70;;;30.10;;
57337;SDS011;43173;50.980;18.204;2023-06-10T01:01:26;38.10;;;29.40;;
57337;SDS011;43173;50.980;18.204;2023-06-10T01:03:52;36.50;;;28.70;;
57337;SDS011;43173;50.980;18.204;2023-06-10T01:09:12;34.10;;;28.60;;
57337;SDS011;43173;50.980;18.204;2023-06-10T01:11:46;38.10;;;29.30;;
57337;SDS011;43173;50.980;18.204;2023-06-10T01:14:13;37.90;;;29.50;;
57337;SDS011;43173;50.980;18.204;2023-06-10T01:16:42;38.20;;;31.30;;
57337;SDS011;43173;50.980;18.204;2023-06-10T01:19:11;37.70;;;30.00;;
57337;SDS011;43173;50.980;18.204;2023-06-10T01:21:38;41.10;;;31.10;;
57337;SDS011;43173;50.980;18.204;2023-06-10T01:24:04;38.00;;;30.50;;
57337;SDS011;43173;50.980;18.204;2023-06-10T01:26:33;36.60;;;29.90;;
57337;SDS011;43173;50.980;18.204;2023-06-10T01:29:05;36.20;;;30.10;;
57337;SDS011;43173;50.980;18.204;2023-06-10T01:34:17;38.40;;;30.10;;
57337;SDS011;43173;50.980;18.204;2023-06-10T01:36:48;42.10;;;31.30;;
57337;SDS011;43173;50.980;18.204;2023-06-10T01:39:17;37.00;;;31.10;;
57337;SDS011;43173;50.980;18.204;2023-06-10T01:41:44;34.00;;;29.10;;
57337;SDS011;43173;50.980;18.204;2023-06-10T01:44:10;40.70;;;32.10;;
57337;SDS011;43173;50.980;18.204;2023-06-10T01:46:35;35.10;;;29.80;;
57337;SDS011;43173;50.980;18.204;2023-06-10T01:49:01;35.20;;;30.50;;
57337;SDS011;43173;50.980;18.204;2023-06-10T01:51:27;43.50;;;33.10;;
57337;SDS011;43173;50.980;18.204;2023-06-10T01:53:52;39.50;;;29.60;;
57337;SDS011;43173;50.980;18.204;2023-06-10T01:56:18;43.00;;;32.80;;
57337;SDS011;43173;50.980;18.204;2023-06-10T01:58:45;37.60;;;31.90;;
57337;SDS011;43173;50.980;18.204;2023-06-10T02:01:11;39.20;;;32.00;;
57337;SDS011;43173;50.980;18.204;2023-06-10T02:03:37;41.50;;;31.30;;
57337;SDS011;43173;50.980;18.204;2023-06-10T02:06:02;36.90;;;30.10;;
57337;SDS011;43173;50.980;18.204;2023-06-10T02:08:28;39.30;;;31.20;;
57337;SDS011;43173;50.980;18.204;2023-06-10T02:10:54;41.90;;;30.70;;
57337;SDS011;43173;50.980;18.204;2023-06-10T02:13:19;38.50;;;30.20;;
57337;SDS011;43173;50.980;18.204;2023-06-10T02:15:45;39.30;;;30.90;;
57337;SDS011;43173;50.980;18.204;2023-06-10T02:18:10;38.00;;;30.60;;
57337;SDS011;43173;50.980;18.204;2023-06-10T02:20:39;36.60;;;30.50;;
57337;SDS011;43173;50.980;18.204;2023-06-10T02:23:04;39.20;;;31.70;;
57337;SDS011;43173;50.980;18.204;2023-06-10T02:25:30;38.30;;;30.70;;
57337;SDS011;43173;50.980;18.204;2023-06-10T02:27:56;38.00;;;30.20;;
57337;SDS011;43173;50.980;18.204;2023-06-10T02:30:21;36.60;;;29.60;;
57337;SDS011;43173;50.980;18.204;2023-06-10T02:32:47;32.40;;;27.80;;
57337;SDS011;43173;50.980;18.204;2023-06-10T02:35:14;35.40;;;30.50;;
57337;SDS011;43173;50.980;18.204;2023-06-10T02:37:40;36.10;;;28.80;;
57337;SDS011;43173;50.980;18.204;2023-06-10T02:40:06;39.60;;;31.50;;
57337;SDS011;43173;50.980;18.204;2023-06-10T02:42:34;36.00;;;28.60;;
57337;SDS011;43173;50.980;18.204;2023-06-10T02:44:59;39.30;;;30.60;;
57337;SDS011;43173;50.980;18.204;2023-06-10T02:47:26;36.00;;;29.50;;
57337;SDS011;43173;50.980;18.204;2023-06-10T02:49:51;36.00;;;29.10;;
57337;SDS011;43173;50.980;18.204;2023-06-10T02:52:17;38.40;;;30.50;;
57337;SDS011;43173;50.980;18.204;2023-06-10T02:54:42;37.20;;;28.80;;
57337;SDS011;43173;50.980;18.204;2023-06-10T02:57:08;37.00;;;30.90;;
57337;SDS011;43173;50.980;18.204;2023-06-10T02:59:35;32.90;;;28.90;;
57337;SDS011;43173;50.980;18.204;2023-06-10T03:02:01;37.20;;;30.50;;
57337;SDS011;43173;50.980;18.204;2023-06-10T03:04:26;37.90;;;27.60;;
57337;SDS011;43173;50.980;18.204;2023-06-10T03:06:54;32.80;;;29.00;;
57337;SDS011;43173;50.980;18.204;2023-06-10T03:09:20;34.20;;;28.90;;
57337;SDS011;43173;50.980;18.204;2023-06-10T03:11:46;33.00;;;28.10;;
57337;SDS011;43173;50.980;18.204;2023-06-10T03:14:11;36.00;;;28.60;;
57337;SDS011;43173;50.980;18.204;2023-06-10T03:16:37;36.50;;;29.70;;
57337;SDS011;43173;50.980;18.204;2023-06-10T03:19:06;36.30;;;30.40;;
57337;SDS011;43173;50.980;18.204;2023-06-10T03:21:33;39.00;;;31.00;;
57337;SDS011;43173;50.980;18.204;2023-06-10T03:24:03;35.80;;;30.20;;
57337;SDS011;43173;50.980;18.204;2023-06-10T03:26:29;36.70;;;30.60;;
57337;SDS011;43173;50.980;18.204;2023-06-10T03:28:54;35.40;;;30.00;;
57337;SDS011;43173;50.980;18.204;2023-06-10T03:31:20;34.10;;;30.40;;
57337;SDS011;43173;50.980;18.204;2023-06-10T03:33:46;37.70;;;29.10;;
57337;SDS011;43173;50.980;18.204;2023-06-10T03:36:11;33.90;;;27.70;;
57337;SDS011;43173;50.980;18.204;2023-06-10T03:38:37;37.40;;;28.60;;
57337;SDS011;43173;50.980;18.204;2023-06-10T03:41:02;32.40;;;26.80;;
57337;SDS011;43173;50.980;18.204;2023-06-10T03:43:28;34.10;;;27.20;;
57337;SDS011;43173;50.980;18.204;2023-06-10T03:45:53;34.40;;;25.80;;
57337;SDS011;43173;50.980;18.204;2023-06-10T03:48:19;31.10;;;27.40;;
57337;SDS011;43173;50.980;18.204;2023-06-10T03:50:45;30.50;;;26.40;;
57337;SDS011;43173;50.980;18.204;2023-06-10T03:53:13;30.30;;;24.50;;
57337;SDS011;43173;50.980;18.204;2023-06-10T03:55:38;30.80;;;24.30;;
57337;SDS011;43173;50.980;18.204;2023-06-10T03:58:04;27.50;;;24.60;;
57337;SDS011;43173;50.980;18.204;2023-06-10T04:00:30;30.30;;;24.30;;
57337;SDS011;43173;50.980;18.204;2023-06-10T04:02:56;30.60;;;24.70;;
57337;SDS011;43173;50.980;18.204;2023-06-10T04:05:23;32.30;;;23.80;;
57337;SDS011;43173;50.980;18.204;2023-06-10T04:07:48;27.90;;;22.90;;
57337;SDS011;43173;50.980;18.204;2023-06-10T04:10:15;25.40;;;22.40;;
57337;SDS011;43173;50.980;18.204;2023-06-10T04:12:41;28.20;;;23.20;;
57337;SDS011;43173;50.980;18.204;2023-06-10T04:15:07;28.30;;;22.20;;
57337;SDS011;43173;50.980;18.204;2023-06-10T04:17:32;24.20;;;21.40;;
57337;SDS011;43173;50.980;18.204;2023-06-10T04:19:58;23.70;;;19.90;;
57337;SDS011;43173;50.980;18.204;2023-06-10T04:22:24;23.50;;;21.10;;
57337;SDS011;43173;50.980;18.204;2023-06-10T04:24:50;23.90;;;20.90;;
57337;SDS011;43173;50.980;18.204;2023-06-10T04:27:15;25.40;;;19.30;;
57337;SDS011;43173;50.980;18.204;2023-06-10T04:29:41;23.20;;;19.30;;
57337;SDS011;43173;50.980;18.204;2023-06-10T04:32:07;23.30;;;19.30;;
57337;SDS011;43173;50.980;18.204;2023-06-10T04:34:33;23.40;;;18.80;;
57337;SDS011;43173;50.980;18.204;2023-06-10T04:36:59;22.10;;;19.10;;
57337;SDS011;43173;50.980;18.204;2023-06-10T04:39:25;22.20;;;18.50;;
57337;SDS011;43173;50.980;18.204;2023-06-10T04:41:51;23.30;;;18.70;;
57337;SDS011;43173;50.980;18.204;2023-06-10T04:44:17;21.20;;;18.30;;
57337;SDS011;43173;50.980;18.204;2023-06-10T04:46:44;22.20;;;17.70;;
57337;SDS011;43173;50.980;18.204;2023-06-10T04:49:10;21.60;;;17.70;;
57337;SDS011;43173;50.980;18.204;2023-06-10T04:51:39;20.20;;;17.20;;
57337;SDS011;43173;50.980;18.204;2023-06-10T04:54:05;20.70;;;18.50;;
57337;SDS011;43173;50.980;18.204;2023-06-10T04:56:32;21.10;;;18.00;;
57337;SDS011;43173;50.980;18.204;2023-06-10T04:58:58;22.40;;;18.60;;
57337;SDS011;43173;50.980;18.204;2023-06-10T05:01:23;20.00;;;17.80;;
57337;SDS011;43173;50.980;18.204;2023-06-10T05:03:49;21.20;;;18.10;;
57337;SDS011;43173;50.980;18.204;2023-06-10T05:06:15;20.60;;;18.20;;
57337;SDS011;43173;50.980;18.204;2023-06-10T05:08:40;21.30;;;17.90;;
57337;SDS011;43173;50.980;18.204;2023-06-10T05:11:06;19.50;;;17.20;;
57337;SDS011;43173;50.980;18.204;2023-06-10T05:13:32;19.00;;;16.50;;
57337;SDS011;43173;50.980;18.204;2023-06-10T05:15:58;19.00;;;16.40;;
57337;SDS011;43173;50.980;18.204;2023-06-10T05:18:24;21.20;;;16.80;;
57337;SDS011;43173;50.980;18.204;2023-06-10T05:20:50;17.10;;;15.20;;
57337;SDS011;43173;50.980;18.204;2023-06-10T05:23:15;16.60;;;14.80;;
57337;SDS011;43173;50.980;18.204;2023-06-10T05:25:41;18.30;;;14.80;;
57337;SDS011;43173;50.980;18.204;2023-06-10T05:28:08;16.10;;;14.10;;
57337;SDS011;43173;50.980;18.204;2023-06-10T05:30:36;14.10;;;12.70;;
57337;SDS011;43173;50.980;18.204;2023-06-10T05:33:03;16.00;;;13.70;;
57337;SDS011;43173;50.980;18.204;2023-06-10T05:35:29;15.90;;;12.80;;
57337;SDS011;43173;50.980;18.204;2023-06-10T05:37:55;15.10;;;12.00;;
57337;SDS011;43173;50.980;18.204;2023-06-10T05:40:21;14.80;;;12.90;;
57337;SDS011;43173;50.980;18.204;2023-06-10T05:42:46;17.10;;;12.20;;
57337;SDS011;43173;50.980;18.204;2023-06-10T05:45:12;16.10;;;12.70;;
57337;SDS011;43173;50.980;18.204;2023-06-10T05:47:38;13.20;;;11.30;;
57337;SDS011;43173;50.980;18.204;2023-06-10T05:50:04;12.70;;;11.40;;
57337;SDS011;43173;50.980;18.204;2023-06-10T05:52:34;12.20;;;10.70;;
57337;SDS011;43173;50.980;18.204;2023-06-10T05:55:01;11.20;;;10.00;;
57337;SDS011;43173;50.980;18.204;2023-06-10T05:57:30;13.00;;;10.20;;
57337;SDS011;43173;50.980;18.204;2023-06-10T05:59:55;14.00;;;9.60;;
57337;SDS011;43173;50.980;18.204;2023-06-10T06:02:21;11.40;;;10.30;;
57337;SDS011;43173;50.980;18.204;2023-06-10T06:04:47;12.10;;;10.20;;
57337;SDS011;43173;50.980;18.204;2023-06-10T06:07:12;11.80;;;9.90;;
57337;SDS011;43173;50.980;18.204;2023-06-10T06:09:39;11.30;;;9.40;;
57337;SDS011;43173;50.980;18.204;2023-06-10T06:12:05;12.90;;;10.20;;
57337;SDS011;43173;50.980;18.204;2023-06-10T06:14:32;15.00;;;9.20;;
57337;SDS011;43173;50.980;18.204;2023-06-10T06:16:58;11.00;;;9.30;;
57337;SDS011;43173;50.980;18.204;2023-06-10T06:19:23;11.20;;;9.10;;
57337;SDS011;43173;50.980;18.204;2023-06-10T06:21:49;10.90;;;9.90;;
57337;SDS011;43173;50.980;18.204;2023-06-10T06:24:15;11.60;;;10.00;;
57337;SDS011;43173;50.980;18.204;2023-06-10T06:26:41;13.70;;;9.80;;
57337;SDS011;43173;50.980;18.204;2023-06-10T06:29:07;11.30;;;10.20;;
57337;SDS011;43173;50.980;18.204;2023-06-10T06:31:32;15.00;;;10.30;;
57337;SDS011;43173;50.980;18.204;2023-06-10T06:33:58;12.60;;;9.60;;
57337;SDS011;43173;50.980;18.204;2023-06-10T06:36:24;11.00;;;10.00;;
57337;SDS011;43173;50.980;18.204;2023-06-10T06:38:50;12.60;;;10.70;;
57337;SDS011;43173;50.980;18.204;2023-06-10T06:41:15;9.90;;;8.90;;
57337;SDS011;43173;50.980;18.204;2023-06-10T06:43:41;11.10;;;9.90;;
57337;SDS011;43173;50.980;18.204;2023-06-10T06:46:09;11.90;;;9.10;;
57337;SDS011;43173;50.980;18.204;2023-06-10T06:48:35;9.70;;;8.70;;
57337;SDS011;43173;50.980;18.204;2023-06-10T06:51:00;10.00;;;8.90;;
57337;SDS011;43173;50.980;18.204;2023-06-10T06:53:26;10.80;;;8.50;;
57337;SDS011;43173;50.980;18.204;2023-06-10T06:55:52;12.30;;;8.20;;
57337;SDS011;43173;50.980;18.204;2023-06-10T06:58:17;9.30;;;8.00;;
57337;SDS011;43173;50.980;18.204;2023-06-10T07:00:43;9.10;;;7.90;;
57337;SDS011;43173;50.980;18.204;2023-06-10T07:03:08;10.20;;;7.70;;
57337;SDS011;43173;50.980;18.204;2023-06-10T07:05:34;9.20;;;8.10;;
57337;SDS011;43173;50.980;18.204;2023-06-10T07:08:00;8.80;;;7.80;;
57337;SDS011;43173;50.980;18.204;2023-06-10T07:10:25;8.80;;;7.90;;
57337;SDS011;43173;50.980;18.204;2023-06-10T07:12:51;9.40;;;8.00;;
57337;SDS011;43173;50.980;18.204;2023-06-10T07:15:17;8.70;;;7.80;;
57337;SDS011;43173;50.980;18.204;2023-06-10T07:17:44;9.00;;;8.10;;
57337;SDS011;43173;50.980;18.204;2023-06-10T07:22:42;11.20;;;8.60;;
57337;SDS011;43173;50.980;18.204;2023-06-10T07:25:08;10.30;;;8.70;;
57337;SDS011;43173;50.980;18.204;2023-06-10T07:27:34;10.00;;;9.00;;
57337;SDS011;43173;50.980;18.204;2023-06-10T07:30:01;11.10;;;9.80;;
57337;SDS011;43173;50.980;18.204;2023-06-10T07:32:27;12.50;;;9.60;;
57337;SDS011;43173;50.980;18.204;2023-06-10T07:34:53;10.40;;;9.30;;
57337;SDS011;43173;50.980;18.204;2023-06-10T07:37:18;9.10;;;8.00;;
57337;SDS011;43173;50.980;18.204;2023-06-10T07:39:44;10.70;;;8.00;;
57337;SDS011;43173;50.980;18.204;2023-06-10T07:42:10;10.20;;;7.90;;
57337;SDS011;43173;50.980;18.204;2023-06-10T07:44:36;8.80;;;7.50;;
57337;SDS011;43173;50.980;18.204;2023-06-10T07:47:01;8.20;;;7.30;;
57337;SDS011;43173;50.980;18.204;2023-06-10T07:49:27;10.10;;;7.80;;
57337;SDS011;43173;50.980;18.204;2023-06-10T07:51:54;8.70;;;7.90;;
57337;SDS011;43173;50.980;18.204;2023-06-10T07:54:21;11.50;;;8.10;;
57337;SDS011;43173;50.980;18.204;2023-06-10T07:56:47;10.10;;;8.00;;
57337;SDS011;43173;50.980;18.204;2023-06-10T07:59:13;11.00;;;8.00;;
57337;SDS011;43173;50.980;18.204;2023-06-10T08:01:39;11.80;;;7.80;;
57337;SDS011;43173;50.980;18.204;2023-06-10T08:04:05;8.70;;;7.90;;
57337;SDS011;43173;50.980;18.204;2023-06-10T08:06:32;9.60;;;8.10;;
57337;SDS011;43173;50.980;18.204;2023-06-10T08:08:58;10.00;;;9.00;;
57337;SDS011;43173;50.980;18.204;2023-06-10T08:11:25;11.10;;;8.90;;
57337;SDS011;43173;50.980;18.204;2023-06-10T08:13:53;8.90;;;8.10;;
57337;SDS011;43173;50.980;18.204;2023-06-10T08:16:19;13.40;;;7.90;;
57337;SDS011;43173;50.980;18.204;2023-06-10T08:18:45;12.30;;;7.00;;
57337;SDS011;43173;50.980;18.204;2023-06-10T08:21:11;10.30;;;7.10;;
57337;SDS011;43173;50.980;18.204;2023-06-10T08:23:36;8.40;;;6.60;;
57337;SDS011;43173;50.980;18.204;2023-06-10T08:26:02;7.20;;;6.40;;
57337;SDS011;43173;50.980;18.204;2023-06-10T08:28:27;9.80;;;6.40;;
57337;SDS011;43173;50.980;18.204;2023-06-10T08:30:53;8.20;;;6.60;;
57337;SDS011;43173;50.980;18.204;2023-06-10T08:33:18;7.60;;;6.00;;
57337;SDS011;43173;50.980;18.204;2023-06-10T08:35:44;7.30;;;6.10;;
57337;SDS011;43173;50.980;18.204;2023-06-10T08:38:10;5.90;;;5.30;;
57337;SDS011;43173;50.980;18.204;2023-06-10T08:40:35;6.10;;;5.10;;
57337;SDS011;43173;50.980;18.204;2023-06-10T08:43:10;5.80;;;5.20;;
57337;SDS011;43173;50.980;18.204;2023-06-10T08:48:08;5.50;;;5.00;;
57337;SDS011;43173;50.980;18.204;2023-06-10T08:50:36;5.90;;;5.30;;
57337;SDS011;43173;50.980;18.204;2023-06-10T08:53:04;5.80;;;5.20;;
57337;SDS011;43173;50.980;18.204;2023-06-10T08:55:37;6.50;;;5.60;;
57337;SDS011;43173;50.980;18.204;2023-06-10T08:58:04;5.40;;;4.90;;
57337;SDS011;43173;50.980;18.204;2023-06-10T09:00:30;6.40;;;4.90;;
57337;SDS011;43173;50.980;18.204;2023-06-10T09:02:57;7.50;;;5.60;;
57337;SDS011;43173;50.980;18.204;2023-06-10T09:05:23;5.80;;;5.10;;
57337;SDS011;43173;50.980;18.204;2023-06-10T09:07:51;7.00;;;5.30;;
57337;SDS011;43173;50.980;18.204;2023-06-10T09:10:17;6.70;;;5.10;;
57337;SDS011;43173;50.980;18.204;2023-06-10T09:12:43;7.40;;;5.60;;
57337;SDS011;43173;50.980;18.204;2023-06-10T09:15:10;6.00;;;5.40;;
57337;SDS011;43173;50.980;18.204;2023-06-10T09:17:37;7.00;;;5.60;;
57337;SDS011;43173;50.980;18.204;2023-06-10T09:20:06;6.90;;;5.90;;
57337;SDS011;43173;50.980;18.204;2023-06-10T09:22:34;7.90;;;5.60;;
57337;SDS011;43173;50.980;18.204;2023-06-10T09:25:03;6.90;;;5.90;;
57337;SDS011;43173;50.980;18.204;2023-06-10T09:29:57;6.30;;;5.70;;
57337;SDS011;43173;50.980;18.204;2023-06-10T09:32:24;9.10;;;6.20;;
57337;SDS011;43173;50.980;18.204;2023-06-10T09:34:50;7.00;;;6.30;;
57337;SDS011;43173;50.980;18.204;2023-06-10T09:37:20;7.10;;;6.40;;
57337;SDS011;43173;50.980;18.204;2023-06-10T09:42:32;9.50;;;6.60;;
57337;SDS011;43173;50.980;18.204;2023-06-10T09:44:59;7.20;;;6.50;;
57337;SDS011;43173;50.980;18.204;2023-06-10T09:47:25;8.60;;;7.00;;
57337;SDS011;43173;50.980;18.204;2023-06-10T09:49:51;7.80;;;7.00;;
57337;SDS011;43173;50.980;18.204;2023-06-10T09:52:22;7.40;;;6.70;;
57337;SDS011;43173;50.980;18.204;2023-06-10T09:54:53;8.20;;;7.40;;
57337;SDS011;43173;50.980;18.204;2023-06-10T09:57:20;7.50;;;6.80;;
57337;SDS011;43173;50.980;18.204;2023-06-10T09:59:47;8.00;;;7.10;;
57337;SDS011;43173;50.980;18.204;2023-06-10T10:02:16;9.60;;;7.10;;
57337;SDS011;43173;50.980;18.204;2023-06-10T10:04:42;10.70;;;7.30;;
57337;SDS011;43173;50.980;18.204;2023-06-10T10:07:09;8.10;;;7.30;;
57337;SDS011;43173;50.980;18.204;2023-06-10T10:09:36;9.90;;;7.50;;
57337;SDS011;43173;50.980;18.204;2023-06-10T10:12:12;9.60;;;8.00;;
57337;SDS011;43173;50.980;18.204;2023-06-10T10:14:42;7.90;;;7.10;;
57337;SDS011;43173;50.980;18.204;2023-06-10T10:17:11;10.60;;;8.00;;
57337;SDS011;43173;50.980;18.204;2023-06-10T10:19:50;10.00;;;8.30;;
57337;SDS011;43173;50.980;18.204;2023-06-10T10:22:26;8.80;;;8.00;;
57337;SDS011;43173;50.980;18.204;2023-06-10T10:24:56;13.40;;;7.50;;
57337;SDS011;43173;50.980;18.204;2023-06-10T10:32:50;10.70;;;8.10;;
57337;SDS011;43173;50.980;18.204;2023-06-10T10:35:17;10.80;;;8.00;;
57337;SDS011;43173;50.980;18.204;2023-06-10T10:37:52;9.20;;;7.90;;
57337;SDS011;43173;50.980;18.204;2023-06-10T10:40:19;9.80;;;7.50;;
57337;SDS011;43173;50.980;18.204;2023-06-10T10:42:47;8.40;;;7.60;;
57337;SDS011;43173;50.980;18.204;2023-06-10T10:45:16;11.70;;;8.80;;
57337;SDS011;43173;50.980;18.204;2023-06-10T10:47:43;9.70;;;7.90;;
57337;SDS011;43173;50.980;18.204;2023-06-10T10:50:14;10.30;;;7.90;;
57337;SDS011;43173;50.980;18.204;2023-06-10T10:55:27;11.20;;;7.90;;
57337;SDS011;43173;50.980;18.204;2023-06-10T10:57:53;9.40;;;8.30;;
57337;SDS011;43173;50.980;18.204;2023-06-10T11:00:27;9.20;;;8.10;;
57337;SDS011;43173;50.980;18.204;2023-06-10T11:03:04;8.60;;;7.70;;
57337;SDS011;43173;50.980;18.204;2023-06-10T11:22:01;8.70;;;7.90;;
57337;SDS011;43173;50.980;18.204;2023-06-10T11:24:29;7.40;;;6.70;;
57337;SDS011;43173;50.980;18.204;2023-06-10T11:27:09;10.60;;;7.30;;
57337;SDS011;43173;50.980;18.204;2023-06-10T11:29:54;7.70;;;6.90;;
57337;SDS011;43173;50.980;18.204;2023-06-10T11:32:29;7.70;;;6.90;;
57337;SDS011;43173;50.980;18.204;2023-06-10T11:34:56;8.10;;;6.20;;
57337;SDS011;43173;50.980;18.204;2023-06-10T11:37:21;8.30;;;6.70;;
57337;SDS011;43173;50.980;18.204;2023-06-10T11:39:47;7.60;;;6.00;;
57337;SDS011;43173;50.980;18.204;2023-06-10T11:42:20;8.60;;;6.90;;
57337;SDS011;43173;50.980;18.204;2023-06-10T11:44:48;7.80;;;6.90;;
57337;SDS011;43173;50.980;18.204;2023-06-10T11:47:14;8.90;;;6.90;;
57337;SDS011;43173;50.980;18.204;2023-06-10T11:49:40;8.00;;;7.10;;
57337;SDS011;43173;50.980;18.204;2023-06-10T11:52:06;8.00;;;7.20;;
57337;SDS011;43173;50.980;18.204;2023-06-10T11:54:31;7.40;;;6.00;;
57337;SDS011;43173;50.980;18.204;2023-06-10T11:56:58;6.80;;;6.10;;
57337;SDS011;43173;50.980;18.204;2023-06-10T11:59:29;7.90;;;6.00;;
57337;SDS011;43173;50.980;18.204;2023-06-10T12:01:55;6.50;;;5.90;;
57337;SDS011;43173;50.980;18.204;2023-06-10T12:04:21;7.40;;;6.00;;
57337;SDS011;43173;50.980;18.204;2023-06-10T12:06:48;8.20;;;6.00;;
57337;SDS011;43173;50.980;18.204;2023-06-10T12:11:59;5.80;;;5.30;;
57337;SDS011;43173;50.980;18.204;2023-06-10T12:17:35;7.50;;;5.10;;
57337;SDS011;43173;50.980;18.204;2023-06-10T12:20:05;6.70;;;5.50;;
57337;SDS011;43173;50.980;18.204;2023-06-10T12:22:39;10.30;;;6.10;;
57337;SDS011;43173;50.980;18.204;2023-06-10T12:25:06;7.20;;;5.00;;
57337;SDS011;43173;50.980;18.204;2023-06-10T12:27:32;5.80;;;4.20;;
57337;SDS011;43173;50.980;18.204;2023-06-10T12:29:59;6.70;;;3.70;;
57337;SDS011;43173;50.980;18.204;2023-06-10T12:35:19;13.90;;;4.20;;
57337;SDS011;43173;50.980;18.204;2023-06-10T12:40:31;5.50;;;3.70;;
57337;SDS011;43173;50.980;18.204;2023-06-10T12:42:58;6.40;;;3.90;;
57337;SDS011;43173;50.980;18.204;2023-06-10T12:45:28;7.40;;;3.60;;
57337;SDS011;43173;50.980;18.204;2023-06-10T12:50:43;8.00;;;3.70;;
57337;SDS011;43173;50.980;18.204;2023-06-10T12:53:09;4.10;;;3.70;;
57337;SDS011;43173;50.980;18.204;2023-06-10T12:55:36;6.10;;;3.60;;
57337;SDS011;43173;50.980;18.204;2023-06-10T12:58:02;6.00;;;3.80;;
57337;SDS011;43173;50.980;18.204;2023-06-10T13:00:28;6.80;;;3.60;;
57337;SDS011;43173;50.980;18.204;2023-06-10T13:03:00;5.20;;;3.70;;
57337;SDS011;43173;50.980;18.204;2023-06-10T13:05:27;5.40;;;3.60;;
57337;SDS011;43173;50.980;18.204;2023-06-10T13:07:54;4.50;;;3.50;;
57337;SDS011;43173;50.980;18.204;2023-06-10T13:10:20;4.90;;;3.50;;
57337;SDS011;43173;50.980;18.204;2023-06-10T13:12:46;5.20;;;3.40;;
57337;SDS011;43173;50.980;18.204;2023-06-10T13:15:13;6.70;;;3.70;;
57337;SDS011;43173;50.980;18.204;2023-06-10T13:17:42;5.00;;;3.90;;
57337;SDS011;43173;50.980;18.204;2023-06-10T13:20:09;4.30;;;3.50;;
57337;SDS011;43173;50.980;18.204;2023-06-10T13:22:36;4.90;;;3.70;;
57337;SDS011;43173;50.980;18.204;2023-06-10T13:25:04;8.20;;;3.30;;
57337;SDS011;43173;50.980;18.204;2023-06-10T13:27:32;5.30;;;3.30;;
57337;SDS011;43173;50.980;18.204;2023-06-10T13:29:57;5.30;;;3.50;;
57337;SDS011;43173;50.980;18.204;2023-06-10T13:32:23;6.10;;;3.30;;
57337;SDS011;43173;50.980;18.204;2023-06-10T13:34:48;4.30;;;3.40;;
57337;SDS011;43173;50.980;18.204;2023-06-10T13:37:14;7.30;;;3.30;;
57337;SDS011;43173;50.980;18.204;2023-06-10T13:39:43;4.00;;;3.20;;
57337;SDS011;43173;50.980;18.204;2023-06-10T13:42:08;5.70;;;3.20;;
57337;SDS011;43173;50.980;18.204;2023-06-10T13:44:34;6.00;;;3.60;;
57337;SDS011;43173;50.980;18.204;2023-06-10T13:47:04;5.60;;;3.10;;
57337;SDS011;43173;50.980;18.204;2023-06-10T13:49:31;5.90;;;3.00;;
57337;SDS011;43173;50.980;18.204;2023-06-10T13:51:56;6.90;;;3.40;;
57337;SDS011;43173;50.980;18.204;2023-06-10T13:54:22;4.20;;;3.60;;
57337;SDS011;43173;50.980;18.204;2023-06-10T13:56:48;5.00;;;3.50;;
57337;SDS011;43173;50.980;18.204;2023-06-10T13:59:13;4.20;;;3.00;;
57337;SDS011;43173;50.980;18.204;2023-06-10T14:01:39;4.70;;;3.00;;
57337;SDS011;43173;50.980;18.204;2023-06-10T14:04:06;4.70;;;2.90;;
57337;SDS011;43173;50.980;18.204;2023-06-10T14:06:32;8.00;;;3.10;;
57337;SDS011;43173;50.980;18.204;2023-06-10T14:09:02;6.50;;;3.20;;
57337;SDS011;43173;50.980;18.204;2023-06-10T14:11:28;6.50;;;3.50;;
57337;SDS011;43173;50.980;18.204;2023-06-10T14:13:53;4.20;;;3.10;;
57337;SDS011;43173;50.980;18.204;2023-06-10T14:16:22;5.60;;;3.30;;
57337;SDS011;43173;50.980;18.204;2023-06-10T14:18:47;4.40;;;3.20;;
57337;SDS011;43173;50.980;18.204;2023-06-10T14:21:13;3.40;;;3.10;;
57337;SDS011;43173;50.980;18.204;2023-06-10T14:23:38;5.70;;;3.20;;
57337;SDS011;43173;50.980;18.204;2023-06-10T14:26:04;5.50;;;3.10;;
57337;SDS011;43173;50.980;18.204;2023-06-10T14:28:32;3.80;;;3.10;;
57337;SDS011;43173;50.980;18.204;2023-06-10T14:30:58;4.40;;;3.30;;
57337;SDS011;43173;50.980;18.204;2023-06-10T14:33:23;4.90;;;3.20;;
57337;SDS011;43173;50.980;18.204;2023-06-10T14:35:49;3.40;;;3.10;;
57337;SDS011;43173;50.980;18.204;2023-06-10T14:38:15;6.00;;;3.30;;
57337;SDS011;43173;50.980;18.204;2023-06-10T14:40:40;4.10;;;3.20;;
57337;SDS011;43173;50.980;18.204;2023-06-10T14:43:07;4.50;;;3.10;;
57337;SDS011;43173;50.980;18.204;2023-06-10T14:45:36;3.60;;;3.20;;
57337;SDS011;43173;50.980;18.204;2023-06-10T14:48:03;4.20;;;3.40;;
57337;SDS011;43173;50.980;18.204;2023-06-10T14:50:29;4.70;;;3.40;;
57337;SDS011;43173;50.980;18.204;2023-06-10T14:52:54;4.30;;;3.50;;
57337;SDS011;43173;50.980;18.204;2023-06-10T14:55:20;5.70;;;3.20;;
57337;SDS011;43173;50.980;18.204;2023-06-10T14:57:48;5.80;;;2.90;;
57337;SDS011;43173;50.980;18.204;2023-06-10T15:00:14;5.70;;;3.10;;
57337;SDS011;43173;50.980;18.204;2023-06-10T15:02:42;6.10;;;3.30;;
57337;SDS011;43173;50.980;18.204;2023-06-10T15:05:08;4.80;;;3.20;;
57337;SDS011;43173;50.980;18.204;2023-06-10T15:07:34;5.00;;;3.10;;
57337;SDS011;43173;50.980;18.204;2023-06-10T15:09:59;6.00;;;3.40;;
57337;SDS011;43173;50.980;18.204;2023-06-10T15:12:25;4.80;;;2.90;;